Weather at Chièvres airport - EBCV


metar: EBCV 201525Z AUTO 18006KT 9999 FEW060/// 18/09 Q1003 BLU

29 minuten geleden, om 15:25 UTC, de wind blies met windsnelheden van 3.1 meter per seconde(6.9 mijl per uur) vanuit Zuid nabij Chièvres airport. De temperatuur was 18 °C (64 °F), en de barometerdruk was 1,003 hPa (29.62 inHg). De relatieve vochtigheid was 55.6%. er was geen bewolking. De zichtbaarheid was >10 kilometer (>6.2 mijl).

temperature image   windir image sky image 

Last 24 hour graph Chièvres Airport - EBCV